Time;durP1;ratioP1;P1;durP2;ratioP2;P2;SDS_P1;SDS_P2;PMS_P1;PMS_P2;Temp;Humidity;BMP_temperature;BMP_pressure;BME280_temperature;BME280_humidity;BME280_pressure;Samples;Min_cycle;Max_cycle;Signal;HPM_P1;HPM_P2
2023/11/03 00:01:35;;;;;;;16.88;13.18;;;;;;;;;;5045269;28;20032;-77
2023/11/03 00:04:01;;;;;;;15.80;12.88;;;;;;;;;;5043185;28;20029;-77
2023/11/03 00:06:26;;;;;;;17.52;13.55;;;;;;;;;;5046896;28;20044;-77
2023/11/03 00:08:52;;;;;;;15.65;12.77;;;;;;;;;;5051745;28;20078;-77
2023/11/03 00:11:17;;;;;;;18.30;12.88;;;;;;;;;;5047631;28;20025;-78
2023/11/03 00:13:42;;;;;;;16.15;12.98;;;;;;;;;;5047622;28;20079;-77
2023/11/03 00:16:08;;;;;;;17.50;14.63;;;;;;;;;;5043248;28;20112;-77
2023/11/03 00:18:33;;;;;;;18.08;14.48;;;;;;;;;;5044475;28;20497;-77
2023/11/03 00:21:00;;;;;;;20.25;14.70;;;;;;;;;;5047598;28;20094;-77
2023/11/03 00:23:25;;;;;;;15.73;13.10;;;;;;;;;;5048834;28;20036;-77
2023/11/03 00:25:51;;;;;;;17.88;14.30;;;;;;;;;;5049638;28;20021;-77
2023/11/03 00:28:17;;;;;;;14.02;12.05;;;;;;;;;;5046237;28;20239;-77
2023/11/03 00:30:42;;;;;;;14.25;11.90;;;;;;;;;;5033348;28;20103;-77
2023/11/03 00:33:08;;;;;;;15.75;13.00;;;;;;;;;;5022405;28;20120;-77
2023/11/03 00:35:34;;;;;;;12.85;10.30;;;;;;;;;;5049777;28;20029;-77
2023/11/03 00:38:00;;;;;;;16.48;12.40;;;;;;;;;;5046067;28;20401;-77
2023/11/03 00:40:25;;;;;;;13.77;10.02;;;;;;;;;;5047458;28;20037;-77
2023/11/03 00:42:50;;;;;;;14.93;12.30;;;;;;;;;;5045696;28;20032;-77
2023/11/03 00:45:15;;;;;;;13.30;11.27;;;;;;;;;;5023515;28;20021;-77
2023/11/03 00:47:41;;;;;;;14.85;11.93;;;;;;;;;;5028558;28;20112;-77
2023/11/03 00:50:09;;;;;;;13.93;11.77;;;;;;;;;;5027514;28;20025;-77
2023/11/03 00:52:34;;;;;;;15.10;11.98;;;;;;;;;;5040865;28;20067;-76
2023/11/03 00:54:59;;;;;;;12.85;9.80;;;;;;;;;;5045141;28;20036;-77
2023/11/03 00:57:25;;;;;;;15.77;13.27;;;;;;;;;;5044061;28;20028;-77
2023/11/03 00:59:50;;;;;;;18.10;12.93;;;;;;;;;;5041889;28;20083;-77
2023/11/03 01:02:15;;;;;;;17.63;11.65;;;;;;;;;;5043708;28;20041;-77
2023/11/03 01:04:41;;;;;;;14.60;10.50;;;;;;;;;;5015849;28;20040;-77
2023/11/03 01:07:06;;;;;;;16.00;12.13;;;;;;;;;;5042596;28;20104;-77
2023/11/03 01:09:31;;;;;;;14.05;11.25;;;;;;;;;;5025121;28;20029;-77
2023/11/03 01:11:57;;;;;;;14.73;11.30;;;;;;;;;;5043576;28;20029;-77
2023/11/03 01:14:22;;;;;;;15.50;10.75;;;;;;;;;;5041215;28;20030;-77
2023/11/03 01:16:49;;;;;;;17.20;13.07;;;;;;;;;;5046523;28;20033;-77
2023/11/03 01:19:14;;;;;;;15.93;10.73;;;;;;;;;;5029577;28;20025;-77
2023/11/03 01:21:40;;;;;;;17.70;12.90;;;;;;;;;;5048451;28;20551;-77
2023/11/03 01:24:10;;;;;;;17.42;13.25;;;;;;;;;;5026108;28;20032;-77
2023/11/03 01:26:35;;;;;;;17.08;11.68;;;;;;;;;;5047381;28;20473;-77
2023/11/03 01:29:01;;;;;;;13.40;11.50;;;;;;;;;;5014621;28;20117;-77
2023/11/03 01:31:26;;;;;;;20.52;12.98;;;;;;;;;;5048285;28;20402;-77
2023/11/03 01:33:52;;;;;;;17.23;12.57;;;;;;;;;;5047823;28;20489;-77
2023/11/03 01:36:18;;;;;;;14.68;10.70;;;;;;;;;;5022949;28;20025;-77
2023/11/03 01:38:44;;;;;;;12.60;9.80;;;;;;;;;;5045474;28;20037;-77
2023/11/03 01:41:09;;;;;;;11.98;9.40;;;;;;;;;;5050231;28;20037;-77
2023/11/03 01:43:36;;;;;;;11.07;8.45;;;;;;;;;;5031327;28;20032;-77
2023/11/03 01:46:02;;;;;;;12.38;9.23;;;;;;;;;;5052946;28;20166;-77
2023/11/03 01:48:31;;;;;;;12.32;8.85;;;;;;;;;;5032264;28;20083;-77
2023/11/03 01:50:58;;;;;;;12.23;9.55;;;;;;;;;;5102163;22;20052;-76
2023/11/03 01:53:24;;;;;;;10.07;7.65;;;;;;;;;;5028143;28;20033;-76
2023/11/03 01:55:49;;;;;;;9.52;6.47;;;;;;;;;;5047448;28;20040;-75
2023/11/03 01:58:15;;;;;;;10.20;6.95;;;;;;;;;;5032420;28;20029;-76
2023/11/03 02:00:40;;;;;;;11.02;7.72;;;;;;;;;;5025810;28;20028;-75
2023/11/03 02:03:06;;;;;;;8.57;6.53;;;;;;;;;;5022148;28;20134;-75
2023/11/03 02:05:31;;;;;;;9.57;7.60;;;;;;;;;;5025037;28;20037;-75
2023/11/03 02:07:57;;;;;;;11.20;7.80;;;;;;;;;;5027260;28;20029;-75
2023/11/03 02:10:23;;;;;;;10.02;7.95;;;;;;;;;;5041417;28;20061;-75
2023/11/03 02:12:48;;;;;;;9.27;7.10;;;;;;;;;;5025937;28;20539;-75
2023/11/03 02:15:14;;;;;;;11.75;7.50;;;;;;;;;;5019297;28;20025;-76
2023/11/03 02:17:40;;;;;;;9.13;7.43;;;;;;;;;;5037479;28;20022;-75
2023/11/03 02:20:09;;;;;;;12.80;9.45;;;;;;;;;;5041597;28;20047;-75
2023/11/03 02:22:35;;;;;;;11.15;8.60;;;;;;;;;;5042448;28;20038;-76
2023/11/03 02:25:00;;;;;;;11.10;8.30;;;;;;;;;;5021446;28;20091;-76
2023/11/03 02:27:26;;;;;;;11.38;6.97;;;;;;;;;;5023567;28;20033;-75
2023/11/03 02:29:52;;;;;;;9.40;7.38;;;;;;;;;;5037863;28;20048;-74
2023/11/03 02:32:17;;;;;;;10.50;7.50;;;;;;;;;;5041209;28;20041;-75
2023/11/03 02:34:43;;;;;;;8.82;7.03;;;;;;;;;;5044592;28;20029;-75
2023/11/03 02:37:08;;;;;;;9.85;7.50;;;;;;;;;;5023258;28;20033;-76
2023/11/03 02:39:36;;;;;;;9.52;7.15;;;;;;;;;;5024007;28;20026;-75
2023/11/03 02:42:04;;;;;;;8.75;6.30;;;;;;;;;;5011603;28;20036;-76
2023/11/03 02:44:29;;;;;;;8.98;6.88;;;;;;;;;;5040140;28;20036;-75
2023/11/03 02:46:55;;;;;;;9.63;6.07;;;;;;;;;;5025549;28;20052;-75
2023/11/03 02:49:20;;;;;;;10.02;6.40;;;;;;;;;;5041358;28;20032;-75
2023/11/03 02:51:45;;;;;;;8.43;6.40;;;;;;;;;;5022069;28;20048;-76
2023/11/03 02:54:11;;;;;;;8.02;5.65;;;;;;;;;;5025388;28;20055;-76
2023/11/03 02:56:36;;;;;;;9.45;5.15;;;;;;;;;;5041879;28;20029;-76
2023/11/03 02:59:01;;;;;;;7.57;5.35;;;;;;;;;;5044568;28;20033;-76
2023/11/03 03:01:27;;;;;;;7.05;4.88;;;;;;;;;;5041595;28;20024;-76
2023/11/03 03:03:52;;;;;;;7.18;5.35;;;;;;;;;;5025663;28;20029;-76
2023/11/03 03:06:17;;;;;;;6.25;4.70;;;;;;;;;;5042204;28;20029;-76
2023/11/03 03:08:43;;;;;;;10.10;4.93;;;;;;;;;;5041887;28;20025;-76
2023/11/03 03:11:08;;;;;;;9.48;5.45;;;;;;;;;;5020422;28;20029;-76
2023/11/03 03:13:33;;;;;;;6.32;4.60;;;;;;;;;;5020645;28;20045;-76
2023/11/03 03:15:58;;;;;;;6.93;4.47;;;;;;;;;;5043767;28;20135;-76
2023/11/03 03:18:24;;;;;;;5.90;3.92;;;;;;;;;;5024025;28;20041;-76
2023/11/03 03:20:50;;;;;;;6.18;4.07;;;;;;;;;;5040810;28;20108;-76
2023/11/03 03:23:15;;;;;;;5.88;4.15;;;;;;;;;;5025355;28;20033;-76
2023/11/03 03:25:41;;;;;;;7.03;4.93;;;;;;;;;;5024108;28;20128;-76
2023/11/03 03:28:06;;;;;;;7.55;4.15;;;;;;;;;;5025398;28;20033;-76
2023/11/03 03:30:31;;;;;;;4.75;3.25;;;;;;;;;;5021913;28;20040;-76
2023/11/03 03:32:56;;;;;;;5.22;3.20;;;;;;;;;;5022300;28;20040;-75
2023/11/03 03:35:21;;;;;;;5.72;3.20;;;;;;;;;;5042776;28;20044;-76
2023/11/03 03:37:47;;;;;;;6.28;3.60;;;;;;;;;;5007790;28;20088;-75
2023/11/03 03:40:14;;;;;;;5.53;3.65;;;;;;;;;;5017645;28;20128;-76
2023/11/03 03:42:39;;;;;;;5.93;3.45;;;;;;;;;;4993825;28;20021;-76
2023/11/03 03:45:05;;;;;;;5.55;3.60;;;;;;;;;;5041980;28;20051;-76
2023/11/03 03:47:30;;;;;;;4.70;3.00;;;;;;;;;;5040669;28;20379;-76
2023/11/03 03:49:55;;;;;;;6.93;3.72;;;;;;;;;;5031258;28;20096;-76
2023/11/03 03:52:21;;;;;;;9.60;3.67;;;;;;;;;;5038490;28;20037;-75
2023/11/03 03:54:46;;;;;;;9.48;4.13;;;;;;;;;;5039646;28;20445;-75
2023/11/03 03:57:11;;;;;;;6.38;3.38;;;;;;;;;;5021330;28;20037;-75
2023/11/03 03:59:37;;;;;;;6.07;2.97;;;;;;;;;;5041986;28;20030;-75
2023/11/03 04:02:02;;;;;;;4.93;3.20;;;;;;;;;;5038318;28;20025;-76
2023/11/03 04:04:27;;;;;;;4.90;2.90;;;;;;;;;;5033904;28;20548;-76
2023/11/03 04:06:53;;;;;;;5.90;3.67;;;;;;;;;;5042567;28;20112;-75
2023/11/03 04:09:18;;;;;;;4.30;2.53;;;;;;;;;;5040999;28;20390;-76
2023/11/03 04:11:43;;;;;;;4.53;2.17;;;;;;;;;;5038485;28;20040;-76
2023/11/03 04:14:08;;;;;;;4.38;2.05;;;;;;;;;;5042823;28;20029;-76
2023/11/03 04:16:34;;;;;;;2.95;1.38;;;;;;;;;;5037013;28;20080;-76
2023/11/03 04:18:59;;;;;;;3.28;1.67;;;;;;;;;;5042667;28;20025;-76
2023/11/03 04:21:24;;;;;;;5.47;1.80;;;;;;;;;;5040376;28;20033;-76
2023/11/03 04:23:50;;;;;;;3.55;1.58;;;;;;;;;;5042511;28;20036;-76
2023/11/03 04:26:15;;;;;;;3.58;1.50;;;;;;;;;;5039160;28;20028;-75
2023/11/03 04:28:40;;;;;;;2.35;1.10;;;;;;;;;;5042873;28;20056;-76
2023/11/03 04:31:06;;;;;;;4.68;1.63;;;;;;;;;;5033274;28;20021;-76
2023/11/03 04:33:31;;;;;;;6.88;1.83;;;;;;;;;;5020352;28;20060;-75
2023/11/03 04:35:57;;;;;;;4.00;1.40;;;;;;;;;;5037411;28;20086;-76
2023/11/03 04:38:22;;;;;;;4.57;2.05;;;;;;;;;;5038462;28;20083;-76
2023/11/03 04:40:47;;;;;;;4.28;1.42;;;;;;;;;;5037261;28;20104;-76
2023/11/03 04:43:13;;;;;;;3.88;1.60;;;;;;;;;;5042030;28;20040;-75
2023/11/03 04:45:38;;;;;;;3.67;1.40;;;;;;;;;;5034892;28;20029;-75
2023/11/03 04:48:03;;;;;;;4.35;1.20;;;;;;;;;;5022636;28;20405;-76
2023/11/03 04:50:28;;;;;;;3.50;1.30;;;;;;;;;;5040192;28;20089;-76
2023/11/03 04:52:54;;;;;;;3.50;1.50;;;;;;;;;;5030826;28;20504;-76
2023/11/03 04:55:20;;;;;;;3.50;1.42;;;;;;;;;;5042126;28;20159;-76
2023/11/03 04:57:45;;;;;;;4.15;1.50;;;;;;;;;;5033109;28;20103;-79
2023/11/03 05:00:10;;;;;;;3.65;1.50;;;;;;;;;;5021701;28;20441;-76
2023/11/03 05:02:36;;;;;;;7.60;3.90;;;;;;;;;;5039011;28;20021;-75
2023/11/03 05:05:04;;;;;;;7.85;2.45;;;;;;;;;;5034683;28;20037;-76
2023/11/03 05:07:29;;;;;;;4.15;1.88;;;;;;;;;;5023326;28;20029;-76
2023/11/03 05:09:54;;;;;;;6.20;1.70;;;;;;;;;;5037361;28;20032;-76
2023/11/03 05:12:20;;;;;;;6.00;1.83;;;;;;;;;;5022725;28;20092;-76
2023/11/03 05:14:45;;;;;;;5.00;1.65;;;;;;;;;;5037440;28;20049;-76
2023/11/03 05:17:10;;;;;;;7.43;1.90;;;;;;;;;;5044149;28;20112;-76
2023/11/03 05:19:35;;;;;;;5.55;2.25;;;;;;;;;;5021358;28;20087;-76
2023/11/03 05:22:01;;;;;;;5.82;2.10;;;;;;;;;;5045320;28;20029;-76
2023/11/03 05:24:27;;;;;;;4.03;1.48;;;;;;;;;;5028252;28;20028;-77
2023/11/03 05:26:52;;;;;;;4.70;1.73;;;;;;;;;;5041774;28;20021;-75
2023/11/03 05:29:22;;;;;;;6.82;2.03;;;;;;;;;;5036010;28;20393;-75
2023/11/03 05:31:48;;;;;;;8.30;2.00;;;;;;;;;;5023175;28;20033;-75
2023/11/03 05:34:13;;;;;;;3.92;1.55;;;;;;;;;;5038906;28;20187;-75
2023/11/03 05:36:38;;;;;;;5.93;1.63;;;;;;;;;;5041583;28;20100;-75
2023/11/03 05:39:04;;;;;;;4.57;1.17;;;;;;;;;;5023726;28;20059;-78
2023/11/03 05:41:30;;;;;;;5.63;1.02;;;;;;;;;;5035552;28;20401;-76
2023/11/03 05:43:55;;;;;;;5.45;1.10;;;;;;;;;;5042106;28;20041;-75
2023/11/03 05:46:20;;;;;;;4.25;0.88;;;;;;;;;;5016711;28;20036;-75
2023/11/03 05:48:45;;;;;;;6.00;1.00;;;;;;;;;;5028435;28;20025;-75
2023/11/03 05:51:11;;;;;;;2.80;0.90;;;;;;;;;;5026548;28;20040;-75
2023/11/03 05:53:37;;;;;;;3.28;0.90;;;;;;;;;;5042322;28;20087;-75
2023/11/03 05:56:03;;;;;;;5.35;1.27;;;;;;;;;;5041900;28;20037;-76
2023/11/03 05:58:28;;;;;;;5.97;1.45;;;;;;;;;;5037521;28;20067;-75
2023/11/03 06:00:54;;;;;;;7.15;1.10;;;;;;;;;;5042006;28;20438;-76
2023/11/03 06:03:19;;;;;;;4.57;1.10;;;;;;;;;;5042227;28;20036;-75
2023/11/03 06:05:44;;;;;;;4.72;0.88;;;;;;;;;;5042178;28;20153;-75
2023/11/03 06:08:09;;;;;;;4.28;0.80;;;;;;;;;;5041464;28;20489;-76
2023/11/03 06:10:35;;;;;;;3.03;1.05;;;;;;;;;;5041003;28;20501;-75
2023/11/03 06:13:00;;;;;;;3.88;0.65;;;;;;;;;;5044893;28;20074;-76
2023/11/03 06:15:25;;;;;;;2.92;0.70;;;;;;;;;;5038694;28;20036;-76
2023/11/03 06:17:51;;;;;;;5.93;0.90;;;;;;;;;;5044472;28;20036;-76
2023/11/03 06:20:16;;;;;;;3.67;0.70;;;;;;;;;;5041879;28;20116;-75
2023/11/03 06:22:41;;;;;;;5.57;0.80;;;;;;;;;;5041908;28;20079;-75
2023/11/03 06:25:07;;;;;;;4.70;1.42;;;;;;;;;;5034779;28;20055;-76
2023/11/03 06:27:32;;;;;;;3.28;0.75;;;;;;;;;;5038731;28;20686;-76
2023/11/03 06:29:57;;;;;;;6.88;1.38;;;;;;;;;;5036385;28;20505;-76
2023/11/03 06:32:22;;;;;;;5.15;1.33;;;;;;;;;;5043335;28;20045;-76
2023/11/03 06:34:48;;;;;;;4.18;1.20;;;;;;;;;;5022572;28;20122;-76
2023/11/03 06:37:13;;;;;;;3.22;0.90;;;;;;;;;;5033798;28;20104;-76
2023/11/03 06:39:38;;;;;;;2.38;0.50;;;;;;;;;;5036152;28;20112;-76
2023/11/03 06:42:06;;;;;;;3.40;0.77;;;;;;;;;;5034034;28;20029;-76
2023/11/03 06:44:31;;;;;;;3.00;0.80;;;;;;;;;;5040627;28;20021;-75
2023/11/03 06:46:56;;;;;;;3.63;0.95;;;;;;;;;;5040778;28;20021;-76
2023/11/03 06:49:22;;;;;;;2.05;0.60;;;;;;;;;;5037639;28;20087;-76
2023/11/03 06:51:47;;;;;;;3.88;0.75;;;;;;;;;;5039976;28;20034;-76
2023/11/03 06:54:12;;;;;;;3.30;0.80;;;;;;;;;;5044035;28;20025;-76
2023/11/03 06:56:37;;;;;;;2.80;0.85;;;;;;;;;;5040053;28;20120;-76
2023/11/03 06:59:03;;;;;;;4.85;0.80;;;;;;;;;;5021968;28;20095;-76
2023/11/03 07:01:30;;;;;;;5.50;0.70;;;;;;;;;;5026209;28;20090;-76
2023/11/03 07:03:55;;;;;;;3.95;0.90;;;;;;;;;;5040770;28;20037;-76
2023/11/03 07:06:21;;;;;;;5.32;0.65;;;;;;;;;;5024804;28;20047;-76
2023/11/03 07:08:47;;;;;;;7.70;1.00;;;;;;;;;;5042603;28;20080;-76
2023/11/03 07:11:12;;;;;;;8.13;1.98;;;;;;;;;;5042869;28;20120;-76
2023/11/03 07:13:38;;;;;;;7.60;1.92;;;;;;;;;;5043296;28;20029;-76
2023/11/03 07:16:04;;;;;;;5.25;1.40;;;;;;;;;;5045818;28;20477;-76
2023/11/03 07:18:29;;;;;;;4.63;1.25;;;;;;;;;;5022939;28;20048;-76
2023/11/03 07:20:54;;;;;;;6.32;1.17;;;;;;;;;;5042920;28;20025;-76
2023/11/03 07:23:21;;;;;;;4.95;1.63;;;;;;;;;;5042138;28;20067;-75
2023/11/03 07:25:46;;;;;;;4.50;1.33;;;;;;;;;;5024645;28;20509;-76
2023/11/03 07:28:12;;;;;;;4.30;1.17;;;;;;;;;;5025593;28;20033;-76
2023/11/03 07:30:37;;;;;;;2.20;0.55;;;;;;;;;;5040321;28;20044;-76
2023/11/03 07:33:02;;;;;;;6.25;0.70;;;;;;;;;;5043123;28;20033;-76
2023/11/03 07:35:27;;;;;;;3.80;0.98;;;;;;;;;;5023475;28;20045;-75
2023/11/03 07:37:53;;;;;;;3.40;1.95;;;;;;;;;;5031411;28;20464;-76
2023/11/03 07:40:18;;;;;;;7.05;1.38;;;;;;;;;;5036835;28;20033;-76
2023/11/03 07:42:43;;;;;;;4.35;1.52;;;;;;;;;;5024568;28;20029;-75
2023/11/03 07:45:11;;;;;;;7.25;1.80;;;;;;;;;;5019199;28;20021;-76
2023/11/03 07:47:36;;;;;;;4.18;1.15;;;;;;;;;;5037313;28;20030;-76
2023/11/03 07:50:02;;;;;;;4.22;1.15;;;;;;;;;;5043687;28;20090;-75
2023/11/03 07:52:28;;;;;;;3.38;0.90;;;;;;;;;;5040834;28;20034;-76
2023/11/03 07:54:53;;;;;;;8.43;1.58;;;;;;;;;;5039063;28;20446;-76
2023/11/03 07:57:18;;;;;;;2.55;0.73;;;;;;;;;;5025458;28;20167;-76
2023/11/03 07:59:43;;;;;;;4.53;1.30;;;;;;;;;;5022281;28;20029;-76
2023/11/03 08:02:09;;;;;;;4.88;1.52;;;;;;;;;;5040701;28;20033;-76
2023/11/03 08:04:35;;;;;;;5.88;1.30;;;;;;;;;;5038646;28;20033;-77
2023/11/03 08:07:00;;;;;;;6.43;1.15;;;;;;;;;;5020427;28;20033;-76
2023/11/03 08:09:28;;;;;;;4.95;1.38;;;;;;;;;;5040153;28;20084;-76
2023/11/03 08:11:54;;;;;;;3.83;1.10;;;;;;;;;;5042529;28;20499;-76
2023/11/03 08:14:20;;;;;;;7.10;1.40;;;;;;;;;;5039543;28;20032;-76
2023/11/03 08:16:45;;;;;;;8.45;2.75;;;;;;;;;;5037563;28;20025;-76
2023/11/03 08:19:12;;;;;;;5.93;1.10;;;;;;;;;;5039106;28;20083;-76
2023/11/03 08:21:41;;;;;;;5.20;0.90;;;;;;;;;;5020568;28;20400;-76
2023/11/03 08:24:07;;;;;;;4.53;0.98;;;;;;;;;;5020943;28;20512;-76
2023/11/03 08:26:33;;;;;;;6.10;0.90;;;;;;;;;;5023196;28;20029;-76
2023/11/03 08:29:03;;;;;;;4.53;1.08;;;;;;;;;;5021007;28;20034;-77
2023/11/03 08:31:28;;;;;;;4.13;0.75;;;;;;;;;;5036709;28;20060;-76
2023/11/03 08:33:54;;;;;;;4.85;1.08;;;;;;;;;;5023414;28;20052;-76
2023/11/03 08:36:19;;;;;;;5.22;1.10;;;;;;;;;;5038606;28;20545;-76
2023/11/03 08:38:44;;;;;;;9.27;1.60;;;;;;;;;;5038934;28;20090;-76
2023/11/03 08:41:09;;;;;;;4.72;0.85;;;;;;;;;;5021558;28;20029;-76
2023/11/03 08:43:35;;;;;;;5.20;0.93;;;;;;;;;;5039764;28;20029;-76
2023/11/03 08:46:00;;;;;;;3.80;0.80;;;;;;;;;;5024477;28;20396;-76
2023/11/03 08:48:25;;;;;;;7.28;1.02;;;;;;;;;;5037578;28;20067;-76
2023/11/03 08:50:50;;;;;;;4.88;1.13;;;;;;;;;;5039691;28;20036;-76
2023/11/03 08:53:16;;;;;;;4.43;0.85;;;;;;;;;;5037775;28;20030;-76
2023/11/03 08:55:41;;;;;;;5.88;1.98;;;;;;;;;;5033111;28;20040;-76
2023/11/03 08:58:07;;;;;;;3.58;1.40;;;;;;;;;;5033115;28;20076;-76
2023/11/03 09:00:33;;;;;;;5.55;0.80;;;;;;;;;;5015517;28;20028;-76
2023/11/03 09:02:59;;;;;;;7.00;1.75;;;;;;;;;;5037058;28;20047;-76
2023/11/03 09:05:24;;;;;;;5.95;1.00;;;;;;;;;;5035051;28;20091;-76
2023/11/03 09:07:49;;;;;;;11.00;2.15;;;;;;;;;;5037274;28;20033;-76
2023/11/03 09:10:15;;;;;;;2.75;0.90;;;;;;;;;;5038830;28;20029;-76
2023/11/03 09:12:41;;;;;;;7.88;1.60;;;;;;;;;;5012065;28;20045;-76
2023/11/03 09:15:07;;;;;;;4.72;1.00;;;;;;;;;;5018502;28;20489;-77
2023/11/03 09:17:32;;;;;;;3.63;0.93;;;;;;;;;;5022042;28;20044;-76
2023/11/03 09:19:58;;;;;;;7.22;1.17;;;;;;;;;;5037493;28;20519;-76
2023/11/03 09:22:24;;;;;;;11.05;1.20;;;;;;;;;;5033091;28;20045;-76
2023/11/03 09:24:53;;;;;;;5.43;0.85;;;;;;;;;;5037816;28;20071;-76
2023/11/03 09:27:19;;;;;;;5.18;1.40;;;;;;;;;;5041118;28;20059;-76
2023/11/03 09:29:46;;;;;;;4.53;0.80;;;;;;;;;;5028288;28;20072;-76
2023/11/03 09:32:11;;;;;;;5.50;0.70;;;;;;;;;;5037505;28;20034;-76
2023/11/03 09:34:36;;;;;;;3.00;0.60;;;;;;;;;;5037714;28;20033;-76
2023/11/03 09:37:03;;;;;;;3.53;0.50;;;;;;;;;;5040247;28;20037;-78
2023/11/03 09:39:30;;;;;;;5.05;0.80;;;;;;;;;;5039144;28;20693;-78
2023/11/03 09:42:04;;;;;;;4.13;0.73;;;;;;;;;;5015732;28;20030;-78
2023/11/03 09:44:31;;;;;;;4.85;0.70;;;;;;;;;;5039480;28;20025;-78
2023/11/03 09:46:58;;;;;;;5.53;0.70;;;;;;;;;;5042839;28;20029;-78
2023/11/03 09:49:23;;;;;;;3.70;0.70;;;;;;;;;;5026377;28;20144;-78
2023/11/03 09:51:48;;;;;;;3.90;0.98;;;;;;;;;;5018604;28;20514;-78
2023/11/03 09:54:14;;;;;;;3.50;0.80;;;;;;;;;;5048030;28;20104;-78
2023/11/03 09:56:45;;;;;;;2.45;0.70;;;;;;;;;;5045743;28;20048;-78
2023/11/03 09:59:12;;;;;;;4.72;1.42;;;;;;;;;;5047765;28;20044;-78
2023/11/03 10:01:37;;;;;;;5.57;1.20;;;;;;;;;;5046318;28;20029;-78
2023/11/03 10:04:03;;;;;;;5.75;0.50;;;;;;;;;;5028364;28;20038;-78
2023/11/03 10:06:28;;;;;;;4.38;0.80;;;;;;;;;;5048484;28;20495;-78
2023/11/03 10:08:57;;;;;;;4.38;0.60;;;;;;;;;;5050114;28;20030;-78
2023/11/03 10:11:22;;;;;;;4.85;1.05;;;;;;;;;;5048624;28;20047;-78
2023/11/03 10:13:48;;;;;;;5.32;1.10;;;;;;;;;;5011465;28;20124;-78
2023/11/03 10:16:13;;;;;;;6.65;1.55;;;;;;;;;;5050395;28;20037;-78
2023/11/03 10:18:39;;;;;;;3.95;0.63;;;;;;;;;;5028142;28;20067;-78
2023/11/03 10:21:08;;;;;;;5.25;0.50;;;;;;;;;;5021439;28;20059;-78
2023/11/03 10:23:39;;;;;;;4.55;0.98;;;;;;;;;;5045049;28;20037;-78
2023/11/03 10:26:05;;;;;;;4.80;0.70;;;;;;;;;;5041477;28;20029;-78
2023/11/03 10:28:32;;;;;;;2.33;0.68;;;;;;;;;;5049233;28;20037;-78
2023/11/03 10:30:57;;;;;;;4.45;1.98;;;;;;;;;;5049538;28;20036;-78
2023/11/03 10:33:24;;;;;;;3.33;0.60;;;;;;;;;;5046276;28;20033;-78
2023/11/03 10:35:50;;;;;;;1.92;0.47;;;;;;;;;;5030353;28;20121;-78
2023/11/03 10:38:18;;;;;;;6.43;1.48;;;;;;;;;;5050499;28;20048;-78
2023/11/03 10:40:44;;;;;;;4.25;0.55;;;;;;;;;;5047291;28;20055;-78
2023/11/03 10:43:13;;;;;;;5.88;0.75;;;;;;;;;;5046693;28;20111;-78
2023/11/03 10:45:39;;;;;;;4.78;0.60;;;;;;;;;;5019955;28;20057;-78
2023/11/03 10:48:10;;;;;;;2.45;0.80;;;;;;;;;;5019603;28;20026;-78
2023/11/03 10:50:41;;;;;;;5.68;0.73;;;;;;;;;;5028964;28;20041;-78
2023/11/03 10:53:12;;;;;;;3.55;0.73;;;;;;;;;;5035989;28;20095;-76
2023/11/03 10:55:39;;;;;;;3.88;0.60;;;;;;;;;;5023938;28;20033;-76
2023/11/03 10:58:04;;;;;;;5.22;0.77;;;;;;;;;;5026835;28;20033;-76
2023/11/03 11:00:39;;;;;;;5.22;0.88;;;;;;;;;;5039988;28;20029;-76
2023/11/03 11:03:14;;;;;;;5.68;1.48;;;;;;;;;;5034597;28;20052;-77
2023/11/03 11:05:59;;;;;;;2.80;0.60;;;;;;;;;;5019198;28;20025;-77
2023/11/03 11:08:26;;;;;;;2.85;0.50;;;;;;;;;;5039333;28;20033;-77
2023/11/03 11:10:51;;;;;;;5.60;0.90;;;;;;;;;;5043720;28;20032;-76
2023/11/03 11:13:21;;;;;;;3.08;0.90;;;;;;;;;;5042779;28;20060;-76
2023/11/03 11:15:55;;;;;;;4.32;0.60;;;;;;;;;;5037074;28;20079;-77
2023/11/03 11:18:21;;;;;;;3.78;0.70;;;;;;;;;;5042144;28;20487;-77
2023/11/03 11:20:59;;;;;;;4.72;0.52;;;;;;;;;;5021106;28;20028;-76
2023/11/03 11:23:28;;;;;;;6.82;0.70;;;;;;;;;;5035618;28;20489;-76
2023/11/03 11:25:55;;;;;;;6.47;0.70;;;;;;;;;;5043508;28;20082;-76
2023/11/03 11:28:35;;;;;;;3.97;1.10;;;;;;;;;;5034875;28;20614;-77
2023/11/03 11:31:20;;;;;;;6.57;1.10;;;;;;;;;;5037471;28;20125;-76
2023/11/03 11:33:58;;;;;;;4.75;1.25;;;;;;;;;;5039099;28;20044;-77
2023/11/03 11:36:23;;;;;;;5.20;0.73;;;;;;;;;;5044342;28;20112;-77
2023/11/03 11:38:54;;;;;;;3.97;0.75;;;;;;;;;;5032558;28;20053;-76
2023/11/03 11:41:19;;;;;;;1.98;0.50;;;;;;;;;;5047056;28;20120;-76
2023/11/03 11:43:46;;;;;;;4.05;0.88;;;;;;;;;;5024512;28;20143;-76
2023/11/03 11:46:12;;;;;;;4.55;0.95;;;;;;;;;;5032698;28;20052;-76
2023/11/03 11:48:38;;;;;;;4.22;1.00;;;;;;;;;;5023909;28;20407;-76
2023/11/03 11:51:06;;;;;;;3.22;0.60;;;;;;;;;;5039398;28;20029;-75
2023/11/03 11:53:33;;;;;;;2.35;0.68;;;;;;;;;;5044043;28;20044;-76
2023/11/03 11:55:58;;;;;;;3.53;0.60;;;;;;;;;;5041586;28;20036;-76
2023/11/03 11:58:25;;;;;;;4.07;0.95;;;;;;;;;;5048323;28;20689;-74
2023/11/03 12:00:51;;;;;;;5.78;1.00;;;;;;;;;;5042331;28;20044;-81
2023/11/03 12:03:17;;;;;;;3.05;0.90;;;;;;;;;;5043625;28;20043;-77
2023/11/03 12:05:42;;;;;;;2.20;0.40;;;;;;;;;;5041892;28;20116;-77
2023/11/03 12:08:09;;;;;;;4.38;0.40;;;;;;;;;;5042994;28;20104;-76
2023/11/03 12:10:34;;;;;;;1.85;0.50;;;;;;;;;;5035238;28;20025;-77
2023/11/03 12:13:00;;;;;;;2.55;0.30;;;;;;;;;;5041564;28;20048;-77
2023/11/03 12:15:25;;;;;;;3.92;0.82;;;;;;;;;;5041471;28;20033;-76
2023/11/03 12:17:50;;;;;;;3.40;0.40;;;;;;;;;;5020716;28;20032;-77
2023/11/03 12:20:15;;;;;;;3.15;0.70;;;;;;;;;;5039957;28;20025;-77
2023/11/03 12:22:41;;;;;;;3.13;0.60;;;;;;;;;;5038446;28;20748;-77
2023/11/03 12:25:06;;;;;;;8.25;1.13;;;;;;;;;;5041028;28;20095;-77
2023/11/03 12:27:31;;;;;;;1.88;0.47;;;;;;;;;;5037337;28;20026;-76
2023/11/03 12:30:03;;;;;;;3.60;0.60;;;;;;;;;;5023210;28;20120;-77
2023/11/03 12:32:30;;;;;;;1.75;0.30;;;;;;;;;;5017906;28;20033;-77
2023/11/03 12:34:56;;;;;;;2.20;0.60;;;;;;;;;;5031476;28;20116;-77
2023/11/03 12:37:22;;;;;;;2.95;0.52;;;;;;;;;;5031992;28;20080;-76
2023/11/03 12:39:51;;;;;;;4.28;0.50;;;;;;;;;;5196751;22;20042;-77
2023/11/03 12:42:18;;;;;;;3.35;0.50;;;;;;;;;;5031123;28;20049;-77
2023/11/03 12:44:56;;;;;;;2.30;0.40;;;;;;;;;;5045689;28;20029;-78
2023/11/03 12:47:39;;;;;;;5.20;0.93;;;;;;;;;;5026409;28;20029;-77
2023/11/03 12:50:18;;;;;;;2.85;0.60;;;;;;;;;;5033702;28;20040;-77
2023/11/03 12:52:49;;;;;;;2.25;0.43;;;;;;;;;;5000355;28;20044;-77
2023/11/03 12:55:19;;;;;;;1.77;0.50;;;;;;;;;;5043086;28;20111;-76
2023/11/03 12:57:44;;;;;;;5.35;1.00;;;;;;;;;;5045238;28;20033;-76
2023/11/03 13:00:15;;;;;;;5.38;0.50;;;;;;;;;;5019905;28;20055;-77
2023/11/03 13:02:44;;;;;;;2.40;1.07;;;;;;;;;;5027276;28;20052;-77
2023/11/03 13:05:10;;;;;;;1.77;0.50;;;;;;;;;;5043110;28;20283;-77
2023/11/03 13:07:35;;;;;;;2.33;0.50;;;;;;;;;;5027441;28;20036;-77
2023/11/03 13:10:01;;;;;;;2.25;0.65;;;;;;;;;;5033199;28;20056;-77
2023/11/03 13:12:26;;;;;;;1.83;0.40;;;;;;;;;;5046156;28;20064;-76
2023/11/03 13:14:51;;;;;;;3.47;0.55;;;;;;;;;;5045101;28;20037;-77
2023/11/03 13:17:17;;;;;;;3.88;0.45;;;;;;;;;;5043930;28;20029;-76
2023/11/03 13:19:43;;;;;;;1.83;0.50;;;;;;;;;;5039315;28;20033;-76
2023/11/03 13:22:08;;;;;;;1.60;0.35;;;;;;;;;;5027014;28;20673;-77
2023/11/03 13:24:33;;;;;;;2.60;0.43;;;;;;;;;;5027785;28;20028;-77
2023/11/03 13:27:01;;;;;;;5.85;0.98;;;;;;;;;;5033196;28;20029;-77
2023/11/03 13:29:27;;;;;;;2.53;0.63;;;;;;;;;;5015613;28;20120;-77
2023/11/03 13:31:52;;;;;;;4.30;0.65;;;;;;;;;;5032147;28;20063;-77
2023/11/03 13:34:17;;;;;;;1.88;0.40;;;;;;;;;;5049978;28;20413;-77
2023/11/03 13:36:42;;;;;;;1.75;0.50;;;;;;;;;;5048301;28;20056;-77
2023/11/03 13:39:08;;;;;;;4.57;1.10;;;;;;;;;;5045633;28;20025;-77
2023/11/03 13:41:35;;;;;;;1.58;0.30;;;;;;;;;;5043540;28;20044;-77
2023/11/03 13:44:00;;;;;;;2.70;0.70;;;;;;;;;;5050966;28;20408;-77
2023/11/03 13:46:26;;;;;;;2.15;0.50;;;;;;;;;;5042827;28;20636;-76
2023/11/03 13:48:51;;;;;;;5.55;1.10;;;;;;;;;;5027240;28;20375;-77
2023/11/03 13:51:17;;;;;;;2.75;0.50;;;;;;;;;;5043596;28;20079;-77
2023/11/03 13:53:43;;;;;;;2.63;0.50;;;;;;;;;;5048615;28;20095;-77
2023/11/03 13:56:08;;;;;;;3.00;0.60;;;;;;;;;;5030102;28;20116;-77
2023/11/03 13:58:34;;;;;;;1.88;0.68;;;;;;;;;;5049887;28;20148;-76
2023/11/03 14:01:01;;;;;;;8.23;1.45;;;;;;;;;;5042788;28;20040;-77
2023/11/03 14:03:27;;;;;;;5.13;1.30;;;;;;;;;;5042800;28;20060;-75
2023/11/03 14:05:53;;;;;;;5.90;0.85;;;;;;;;;;5049234;28;20518;-77
2023/11/03 14:08:19;;;;;;;4.43;1.05;;;;;;;;;;5022730;28;20061;-77
2023/11/03 14:10:45;;;;;;;2.17;0.60;;;;;;;;;;5047607;28;20091;-77
2023/11/03 14:13:11;;;;;;;2.88;0.52;;;;;;;;;;5026838;28;20029;-77
2023/11/03 14:15:36;;;;;;;3.10;0.40;;;;;;;;;;5051820;28;20086;-77
2023/11/03 14:18:02;;;;;;;4.88;0.70;;;;;;;;;;5051720;28;20036;-77
2023/11/03 14:20:27;;;;;;;2.08;0.50;;;;;;;;;;5028558;28;20040;-77
2023/11/03 14:22:53;;;;;;;2.65;0.90;;;;;;;;;;5043867;28;20033;-77
2023/11/03 14:25:18;;;;;;;5.53;0.63;;;;;;;;;;5045048;28;20021;-76
2023/11/03 14:27:44;;;;;;;4.55;1.25;;;;;;;;;;5044704;28;20397;-76
2023/11/03 14:30:11;;;;;;;4.45;0.85;;;;;;;;;;5045547;28;20029;-76
2023/11/03 14:32:37;;;;;;;3.28;0.77;;;;;;;;;;5046889;28;20044;-76